createdAt,value
2022-11-11T00:01:15.558Z,23.17
2022-11-11T00:04:39.517Z,24.60
2022-11-11T00:08:03.573Z,23.67
2022-11-11T00:11:27.169Z,29.00
2022-11-11T00:14:51.130Z,25.85
2022-11-11T00:18:33.593Z,24.75
2022-11-11T00:22:36.225Z,19.67
2022-11-11T00:26:18.168Z,28.90
2022-11-11T00:29:47.634Z,24.85
2022-11-11T00:33:11.292Z,21.02
2022-11-11T00:36:35.172Z,21.23
2022-11-11T00:39:59.371Z,22.58
2022-11-11T00:43:23.032Z,25.85
2022-11-11T00:47:05.245Z,22.27
2022-11-11T00:50:47.938Z,21.73
2022-11-11T00:54:12.591Z,19.30
2022-11-11T00:57:36.734Z,22.55
2022-11-11T01:01:00.487Z,22.92
2022-11-11T01:04:25.308Z,19.77
2022-11-11T01:07:50.695Z,21.27
2022-11-11T01:11:21.174Z,17.83
2022-11-11T01:14:45.348Z,21.98
2022-11-11T01:18:11.406Z,20.60
2022-11-11T01:21:35.868Z,17.98
2022-11-11T01:25:00.069Z,20.27
2022-11-11T01:28:24.398Z,22.00
2022-11-11T01:31:48.793Z,24.20
2022-11-11T01:35:12.433Z,20.98
2022-11-11T01:38:37.461Z,22.67
2022-11-11T01:42:02.280Z,20.00
2022-11-11T01:46:00.128Z,18.30
2022-11-11T01:49:59.291Z,17.60
2022-11-11T01:53:23.410Z,18.88
2022-11-11T01:56:52.025Z,23.58
2022-11-11T02:00:19.269Z,23.48
2022-11-11T02:04:03.852Z,18.08
2022-11-11T02:07:28.377Z,17.92
2022-11-11T02:10:52.406Z,20.50
2022-11-11T02:14:35.169Z,20.63
2022-11-11T02:17:59.057Z,20.75
2022-11-11T02:21:33.941Z,18.65
2022-11-11T02:25:46.066Z,21.70
2022-11-11T02:29:14.051Z,18.55
2022-11-11T02:32:38.458Z,20.73
2022-11-11T02:36:02.317Z,27.55
2022-11-11T02:39:42.348Z,18.98
2022-11-11T02:43:10.433Z,17.50
2022-11-11T02:46:34.109Z,18.48
2022-11-11T02:49:57.856Z,17.33
2022-11-11T02:53:22.588Z,20.38
2022-11-11T02:57:04.813Z,16.50
2022-11-11T03:00:28.724Z,15.73
2022-11-11T03:03:52.789Z,19.67
2022-11-11T03:07:16.844Z,18.08
2022-11-11T03:10:40.600Z,17.80
2022-11-11T03:14:04.741Z,13.65
2022-11-11T03:17:40.742Z,12.40
2022-11-11T03:21:35.583Z,12.25
2022-11-11T03:25:06.986Z,15.60
2022-11-11T03:28:30.738Z,17.27
2022-11-11T03:31:54.812Z,22.00
2022-11-11T03:35:18.623Z,25.33
2022-11-11T03:38:42.456Z,23.80
2022-11-11T03:42:06.385Z,16.38
2022-11-11T03:45:31.130Z,18.85
2022-11-11T03:48:55.125Z,19.65
2022-11-11T03:52:18.840Z,13.98
2022-11-11T03:55:43.011Z,20.58
2022-11-11T03:59:06.932Z,16.55
2022-11-11T04:02:49.625Z,13.18
2022-11-11T04:06:32.001Z,11.65
2022-11-11T04:10:14.137Z,17.38
2022-11-11T04:14:01.649Z,12.07
2022-11-11T04:17:25.554Z,11.32
2022-11-11T04:21:07.924Z,13.52
2022-11-11T04:24:50.309Z,11.40
2022-11-11T04:28:32.548Z,12.75
2022-11-11T04:32:31.550Z,11.75
2022-11-11T04:35:54.987Z,16.88
2022-11-11T04:39:37.466Z,12.70
2022-11-11T04:43:01.752Z,12.23
2022-11-11T04:46:25.240Z,13.52
2022-11-11T04:49:49.223Z,9.20
2022-11-11T04:53:15.880Z,12.48
2022-11-11T04:56:50.199Z,13.20
2022-11-11T05:00:18.181Z,11.25
2022-11-11T05:03:42.035Z,10.95
2022-11-11T05:07:24.264Z,11.77
2022-11-11T05:10:48.036Z,11.50
2022-11-11T05:14:30.596Z,9.60
2022-11-11T05:18:14.467Z,9.15
2022-11-11T05:21:38.789Z,11.30
2022-11-11T05:25:22.924Z,16.02
2022-11-11T05:28:47.314Z,10.25
2022-11-11T05:32:11.025Z,8.13
2022-11-11T05:35:36.530Z,8.73
2022-11-11T05:39:05.321Z,8.30
2022-11-11T05:42:28.967Z,12.10
2022-11-11T05:45:52.746Z,9.75
2022-11-11T05:49:16.494Z,8.75
2022-11-11T05:52:40.490Z,8.95
2022-11-11T05:56:04.485Z,8.25
2022-11-11T05:59:28.019Z,8.95
2022-11-11T06:02:51.493Z,16.23
2022-11-11T06:06:15.426Z,12.23
2022-11-11T06:09:39.099Z,10.93
2022-11-11T06:13:04.907Z,11.98
2022-11-11T06:16:29.590Z,10.30
2022-11-11T06:19:53.596Z,14.15
2022-11-11T06:23:20.002Z,11.73
2022-11-11T06:26:43.923Z,10.98
2022-11-11T06:30:42.536Z,9.93
2022-11-11T06:33:53.372Z,12.05
2022-11-11T06:37:17.182Z,8.65
2022-11-11T06:40:42.965Z,7.25
2022-11-11T06:44:06.556Z,8.88
2022-11-11T06:47:30.419Z,7.90
2022-11-11T06:50:55.710Z,11.02
2022-11-11T06:54:19.773Z,10.40
2022-11-11T06:57:44.286Z,8.77
2022-11-11T07:01:09.387Z,6.72
2022-11-11T07:04:33.347Z,8.52
2022-11-11T07:07:56.900Z,11.60
2022-11-11T07:11:20.686Z,12.10
2022-11-11T07:14:44.681Z,8.40
2022-11-11T07:18:09.404Z,12.30
2022-11-11T07:21:33.476Z,12.50
2022-11-11T07:24:57.428Z,10.18
2022-11-11T07:28:21.678Z,8.65
2022-11-11T07:31:45.224Z,8.02
2022-11-11T07:35:10.116Z,12.93
2022-11-11T07:38:33.839Z,12.02
2022-11-11T07:41:57.966Z,9.18
2022-11-11T07:45:21.794Z,11.05
2022-11-11T07:48:45.859Z,13.13
2022-11-11T07:52:09.757Z,9.25
2022-11-11T07:55:33.993Z,9.10
2022-11-11T07:58:58.014Z,6.70
2022-11-11T08:02:21.636Z,9.25
2022-11-11T08:05:45.854Z,7.97
2022-11-11T08:09:09.791Z,9.25
2022-11-11T08:12:52.296Z,8.00
2022-11-11T08:16:16.640Z,10.77
2022-11-11T08:19:41.952Z,8.13
2022-11-11T08:26:55.020Z,10.05
2022-11-11T08:30:18.809Z,10.32
2022-11-11T08:33:42.914Z,9.85
2022-11-11T08:37:10.643Z,7.78
2022-11-11T08:40:36.432Z,7.40
2022-11-11T08:44:01.030Z,8.93
2022-11-11T08:47:25.128Z,9.55
2022-11-11T08:50:52.930Z,10.30
2022-11-11T08:54:16.728Z,9.02
2022-11-11T08:57:40.577Z,8.32
2022-11-11T09:01:04.925Z,7.25
2022-11-11T09:04:43.708Z,8.48
2022-11-11T09:08:08.764Z,12.15
2022-11-11T09:11:36.272Z,6.78
2022-11-11T09:15:01.231Z,11.40
2022-11-11T09:18:24.966Z,7.78
2022-11-11T09:21:48.846Z,7.57
2022-11-11T09:25:12.825Z,10.40
2022-11-11T09:28:37.292Z,9.40
2022-11-11T09:32:02.592Z,10.25
2022-11-11T09:35:26.428Z,15.30
2022-11-11T09:38:58.660Z,10.75
2022-11-11T09:43:04.881Z,9.90
2022-11-11T09:46:52.259Z,8.50
2022-11-11T09:50:45.632Z,7.53
2022-11-11T09:54:22.872Z,8.98
2022-11-11T09:58:49.438Z,8.40
2022-11-11T10:02:40.167Z,5.75
2022-11-11T10:06:23.919Z,5.22
2022-11-11T10:10:01.943Z,7.88
2022-11-11T10:13:46.256Z,6.80
2022-11-11T10:17:48.689Z,5.47
2022-11-11T10:21:18.138Z,7.53
2022-11-11T10:24:48.376Z,6.35
2022-11-11T10:28:25.186Z,14.40
2022-11-11T10:32:20.000Z,7.15
2022-11-11T10:35:44.728Z,8.80
2022-11-11T10:39:12.221Z,6.97
2022-11-11T10:42:40.817Z,7.65
2022-11-11T10:46:20.652Z,8.00
2022-11-11T10:50:14.991Z,11.38
2022-11-11T10:53:54.304Z,10.23
2022-11-11T10:57:29.148Z,7.32
2022-11-11T11:00:55.002Z,8.50
2022-11-11T11:04:46.135Z,12.18
2022-11-11T11:08:22.641Z,10.35
2022-11-11T11:11:55.429Z,8.05
2022-11-11T11:15:24.331Z,8.85
2022-11-11T11:19:29.953Z,9.25
2022-11-11T11:22:58.986Z,9.90
2022-11-11T11:26:22.650Z,6.05
2022-11-11T11:29:49.713Z,5.93
2022-11-11T11:33:13.883Z,6.85
2022-11-11T11:36:38.246Z,7.28
2022-11-11T11:40:12.208Z,6.68
2022-11-11T11:43:42.917Z,10.77
2022-11-11T11:47:13.092Z,11.63
2022-11-11T11:51:01.412Z,9.32
2022-11-11T11:54:51.647Z,7.10
2022-11-11T11:58:42.677Z,11.13
2022-11-11T12:02:44.050Z,7.28
2022-11-11T12:06:48.108Z,9.98
2022-11-11T12:10:43.236Z,7.68
2022-11-11T12:14:57.148Z,10.25
2022-11-11T12:18:49.153Z,6.78
2022-11-11T12:22:58.218Z,5.82
2022-11-11T12:26:40.797Z,6.40
2022-11-11T12:30:14.450Z,6.63
2022-11-11T12:33:56.858Z,7.70
2022-11-11T12:37:42.608Z,4.90
2022-11-11T12:41:52.802Z,9.10
2022-11-11T12:45:42.124Z,4.18
2022-11-11T12:49:17.846Z,6.57
2022-11-11T12:53:06.409Z,5.38
2022-11-11T12:56:48.417Z,10.27
2022-11-11T13:00:20.074Z,6.18
2022-11-11T13:04:13.203Z,8.93
2022-11-11T13:07:58.786Z,8.23
2022-11-11T13:11:51.998Z,8.55
2022-11-11T13:15:28.485Z,6.70
2022-11-11T13:22:53.837Z,5.70
2022-11-11T13:26:39.965Z,11.07
2022-11-11T13:30:37.164Z,7.15
2022-11-11T13:34:05.888Z,7.43
2022-11-11T13:37:48.073Z,22.52
2022-11-11T13:41:28.295Z,8.60
2022-11-11T13:44:55.586Z,12.88
2022-11-11T13:48:32.698Z,14.38
2022-11-11T13:52:04.509Z,23.67
2022-11-11T13:55:37.156Z,23.92
2022-11-11T13:59:01.697Z,22.17
2022-11-11T14:02:38.029Z,18.80
2022-11-11T14:06:28.097Z,19.20
2022-11-11T14:09:53.944Z,18.70
2022-11-11T14:13:24.493Z,26.70
2022-11-11T14:16:54.683Z,19.15
2022-11-11T14:20:42.025Z,22.25
2022-11-11T14:24:07.345Z,20.00
2022-11-11T14:27:39.531Z,19.15
2022-11-11T14:31:12.719Z,18.27
2022-11-11T14:35:24.763Z,22.48
2022-11-11T14:38:58.445Z,21.77
2022-11-11T14:42:35.126Z,24.92
2022-11-11T14:46:22.102Z,25.27
2022-11-11T14:49:55.467Z,19.35
2022-11-11T14:53:25.269Z,22.85
2022-11-11T14:57:08.109Z,26.95
2022-11-11T15:01:24.997Z,26.42
2022-11-11T15:05:00.297Z,29.10
2022-11-11T15:08:52.761Z,26.05
2022-11-11T15:12:50.810Z,29.83
2022-11-11T15:17:37.640Z,26.50
2022-11-11T15:21:37.382Z,22.02
2022-11-11T15:26:12.420Z,22.27
2022-11-11T15:30:20.995Z,23.02
2022-11-11T15:34:17.757Z,22.92
2022-11-11T15:37:59.348Z,24.77
2022-11-11T15:41:34.762Z,22.20
2022-11-11T15:45:01.081Z,26.92
2022-11-11T15:48:43.764Z,28.13
2022-11-11T15:52:24.741Z,23.52
2022-11-11T15:55:57.431Z,22.98
2022-11-11T15:59:31.188Z,16.30
2022-11-11T16:02:59.289Z,17.70
2022-11-11T16:06:48.779Z,17.83
2022-11-11T16:10:44.569Z,18.58
2022-11-11T16:14:50.944Z,18.98
2022-11-11T16:25:06.545Z,14.48
2022-11-11T16:28:16.400Z,16.77
2022-11-11T16:32:11.062Z,11.30
2022-11-11T16:35:40.354Z,11.35
2022-11-11T16:39:20.901Z,13.35
2022-11-11T16:42:44.705Z,13.40
2022-11-11T16:46:12.945Z,13.02
2022-11-11T16:49:42.081Z,15.82
2022-11-11T16:52:52.000Z,16.95
2022-11-11T16:56:27.242Z,17.73
2022-11-11T17:00:00.782Z,18.00
2022-11-11T17:03:30.541Z,14.60
2022-11-11T17:07:00.039Z,17.73
2022-11-11T17:10:26.631Z,15.35
2022-11-11T17:13:50.552Z,19.25
2022-11-11T17:17:14.938Z,14.98
2022-11-11T17:20:39.472Z,18.08
2022-11-11T17:24:04.721Z,17.50
2022-11-11T17:27:31.918Z,17.38
2022-11-11T17:30:55.807Z,19.38
2022-11-11T17:34:19.526Z,21.65
2022-11-11T17:37:43.328Z,24.05
2022-11-11T17:41:07.338Z,31.17
2022-11-11T17:44:31.361Z,31.42
2022-11-11T17:47:55.876Z,24.00
2022-11-11T17:51:20.057Z,37.78
2022-11-11T17:54:44.146Z,38.33
2022-11-11T17:58:11.340Z,34.20
2022-11-11T18:08:55.276Z,19.75
2022-11-11T18:12:18.748Z,20.63
2022-11-11T18:15:42.528Z,19.27
2022-11-11T18:19:06.296Z,20.45
2022-11-11T18:22:29.894Z,18.35
2022-11-11T18:25:56.607Z,16.67
2022-11-11T18:29:20.541Z,18.63
2022-11-11T18:32:45.856Z,24.98
2022-11-11T18:36:15.096Z,21.23
2022-11-11T18:39:38.469Z,24.77
2022-11-11T18:43:02.108Z,26.30
2022-11-11T18:46:29.852Z,15.60
2022-11-11T18:49:53.609Z,23.10
2022-11-11T18:53:17.824Z,29.10
2022-11-11T18:56:41.691Z,29.55
2022-11-11T19:00:06.236Z,26.63
2022-11-11T19:03:30.175Z,20.85
2022-11-11T19:06:53.899Z,30.90
2022-11-11T19:10:17.855Z,21.85
2022-11-11T19:13:41.698Z,23.55
2022-11-11T19:17:06.449Z,19.73
2022-11-11T19:20:30.112Z,21.33
2022-11-11T19:23:55.671Z,16.45
2022-11-11T19:27:19.390Z,18.35
2022-11-11T19:30:43.269Z,21.60
2022-11-11T19:34:07.088Z,17.83
2022-11-11T19:37:30.802Z,17.85
2022-11-11T19:40:54.430Z,18.17
2022-11-11T19:44:18.271Z,16.98
2022-11-11T19:47:42.172Z,21.67
2022-11-11T19:51:08.713Z,21.30
2022-11-11T19:54:32.795Z,27.92
2022-11-11T19:57:56.679Z,17.08
2022-11-11T20:01:24.344Z,23.02
2022-11-11T20:04:47.624Z,44.70
2022-11-11T20:08:11.236Z,50.92
2022-11-11T20:11:38.129Z,48.85
2022-11-11T20:15:01.479Z,44.30
2022-11-11T20:18:25.139Z,45.67
2022-11-11T20:21:49.152Z,30.05
2022-11-11T20:25:15.216Z,23.75
2022-11-11T20:28:39.958Z,22.10
2022-11-11T20:32:03.644Z,25.23
2022-11-11T20:35:26.996Z,33.35
2022-11-11T20:38:50.898Z,22.15
2022-11-11T20:42:14.156Z,26.02
2022-11-11T20:45:38.088Z,28.13
2022-11-11T20:49:01.886Z,24.48
2022-11-11T20:52:25.562Z,17.40
2022-11-11T20:55:49.450Z,17.83
2022-11-11T20:59:12.774Z,21.20
2022-11-11T21:02:36.457Z,21.88
2022-11-11T21:06:06.327Z,16.80
2022-11-11T21:09:30.077Z,16.52
2022-11-11T21:12:55.233Z,13.55
2022-11-11T21:16:23.274Z,14.82
2022-11-11T21:19:46.709Z,13.60
2022-11-11T21:23:10.523Z,13.98
2022-11-11T21:26:35.957Z,16.83
2022-11-11T21:29:59.525Z,13.10
2022-11-11T21:33:23.597Z,12.15
2022-11-11T21:36:47.127Z,12.70
2022-11-11T21:40:11.829Z,12.77
2022-11-11T21:43:36.683Z,12.00
2022-11-11T21:47:00.473Z,12.00
2022-11-11T21:50:24.205Z,9.95
2022-11-11T21:53:52.229Z,12.90
2022-11-11T21:57:16.244Z,10.48
2022-11-11T22:00:39.923Z,11.25
2022-11-11T22:04:06.713Z,12.23
2022-11-11T22:07:30.324Z,10.48
2022-11-11T22:10:55.053Z,12.32
2022-11-11T22:14:20.208Z,10.02
2022-11-11T22:17:43.942Z,8.07
2022-11-11T22:21:08.438Z,13.15
2022-11-11T22:24:32.037Z,10.15
2022-11-11T22:27:55.918Z,9.40
2022-11-11T22:31:26.051Z,13.15
2022-11-11T22:34:49.594Z,8.55
2022-11-11T22:38:13.363Z,8.50
2022-11-11T22:41:39.732Z,7.55
2022-11-11T22:45:03.527Z,8.43
2022-11-11T22:48:27.328Z,8.77
2022-11-11T22:51:51.273Z,9.05
2022-11-11T22:55:15.325Z,8.27
2022-11-11T22:58:41.677Z,7.78
2022-11-11T23:02:05.251Z,9.60
2022-11-11T23:05:28.847Z,8.60
2022-11-11T23:08:52.768Z,8.98
2022-11-11T23:12:16.834Z,8.27
2022-11-11T23:15:40.514Z,6.65
2022-11-11T23:19:04.964Z,7.95
2022-11-11T23:22:28.333Z,9.50
2022-11-11T23:25:53.100Z,8.05
2022-11-11T23:29:16.655Z,11.95
2022-11-11T23:32:40.464Z,8.43
2022-11-11T23:36:07.709Z,7.03
2022-11-11T23:39:31.539Z,8.52
2022-11-11T23:42:55.645Z,8.25
2022-11-11T23:46:19.073Z,9.68
2022-11-11T23:49:42.791Z,8.52
2022-11-11T23:53:06.647Z,8.45
2022-11-11T23:56:31.198Z,6.65
2022-11-11T23:59:54.764Z,8.77
